createdAt,value
2017-07-02T00:00:28.447Z,954.40
2017-07-02T00:01:22.731Z,954.37
2017-07-02T00:02:23.282Z,954.42
2017-07-02T00:03:27.986Z,954.41
2017-07-02T00:04:28.260Z,954.39
2017-07-02T00:05:28.000Z,954.37
2017-07-02T00:06:28.295Z,954.37
2017-07-02T00:07:27.688Z,954.39
2017-07-02T00:08:18.148Z,954.40
2017-07-02T00:09:18.675Z,954.41
2017-07-02T00:10:22.230Z,954.42
2017-07-02T00:11:27.520Z,954.41
2017-07-02T00:12:22.939Z,954.33
2017-07-02T00:13:23.018Z,954.37
2017-07-02T00:14:25.498Z,954.39
2017-07-02T00:15:28.021Z,954.38
2017-07-02T00:16:23.481Z,954.34
2017-07-02T00:17:18.327Z,954.38
2017-07-02T00:18:27.636Z,954.33
2017-07-02T00:19:27.928Z,954.37
2017-07-02T00:20:22.957Z,954.34
2017-07-02T00:21:18.318Z,954.29
2017-07-02T00:22:22.785Z,954.29
2017-07-02T00:23:22.846Z,954.34
2017-07-02T00:24:18.011Z,954.30
2017-07-02T00:25:20.156Z,954.40
2017-07-02T00:26:18.138Z,954.36
2017-07-02T00:27:28.450Z,954.30
2017-07-02T00:28:35.889Z,954.33
2017-07-02T00:29:22.577Z,954.33
2017-07-02T00:30:27.857Z,954.33
2017-07-02T00:31:18.965Z,954.31
2017-07-02T00:32:28.246Z,954.33
2017-07-02T00:33:27.521Z,954.28
2017-07-02T00:34:27.805Z,954.31
2017-07-02T00:35:23.018Z,954.36
2017-07-02T00:36:22.660Z,954.38
2017-07-02T00:37:27.688Z,954.40
2017-07-02T00:38:22.303Z,954.38
2017-07-02T00:39:22.453Z,954.42
2017-07-02T00:40:22.200Z,954.40
2017-07-02T00:41:22.299Z,954.34
2017-07-02T00:42:24.375Z,954.34
2017-07-02T00:43:22.427Z,954.40
2017-07-02T00:44:27.748Z,954.40
2017-07-02T00:45:23.249Z,954.38
2017-07-02T00:46:27.932Z,954.42
2017-07-02T00:47:18.088Z,954.42
2017-07-02T00:48:23.093Z,954.44
2017-07-02T00:49:28.407Z,954.38
2017-07-02T00:50:22.697Z,954.40
2017-07-02T00:51:27.974Z,954.39
2017-07-02T00:52:18.877Z,954.43
2017-07-02T00:53:18.105Z,954.37
2017-07-02T00:54:28.002Z,954.41
2017-07-02T00:55:18.934Z,954.46
2017-07-02T00:56:23.140Z,954.39
2017-07-02T00:57:18.866Z,954.40
2017-07-02T00:58:23.050Z,954.39
2017-07-02T00:59:22.952Z,954.41
2017-07-02T01:00:23.064Z,954.33
2017-07-02T01:01:18.494Z,954.41
2017-07-02T01:02:17.280Z,954.48
2017-07-02T01:03:27.467Z,954.44
2017-07-02T01:04:27.755Z,954.37
2017-07-02T01:05:23.965Z,954.42
2017-07-02T01:06:29.095Z,954.39
2017-07-02T01:07:27.844Z,954.40
2017-07-02T01:08:23.066Z,954.40
2017-07-02T01:09:28.346Z,954.45
2017-07-02T01:10:27.634Z,954.44
2017-07-02T01:11:27.565Z,954.46
2017-07-02T01:12:27.921Z,954.48
2017-07-02T01:13:22.482Z,954.46
2017-07-02T01:14:24.016Z,954.44
2017-07-02T01:15:23.017Z,954.45
2017-07-02T01:16:17.278Z,954.44
2017-07-02T01:17:27.872Z,954.45
2017-07-02T01:18:23.065Z,954.44
2017-07-02T01:19:24.023Z,954.44
2017-07-02T01:20:28.365Z,954.47
2017-07-02T01:21:27.634Z,954.45
2017-07-02T01:22:22.812Z,954.44
2017-07-02T01:23:22.919Z,954.45
2017-07-02T01:24:23.092Z,954.43
2017-07-02T01:25:24.111Z,954.46
2017-07-02T01:26:28.328Z,954.48
2017-07-02T01:27:27.632Z,954.46
2017-07-02T01:28:27.969Z,954.45
2017-07-02T01:29:28.264Z,954.50
2017-07-02T01:30:27.575Z,954.48
2017-07-02T01:31:27.849Z,954.48
2017-07-02T01:32:23.087Z,954.50
2017-07-02T01:33:22.661Z,954.44
2017-07-02T01:34:22.962Z,954.47
2017-07-02T01:35:17.571Z,954.50
2017-07-02T01:36:23.217Z,954.53
2017-07-02T01:37:17.644Z,954.63
2017-07-02T01:38:27.957Z,954.50
2017-07-02T01:39:23.155Z,954.48
2017-07-02T01:40:23.339Z,954.53
2017-07-02T01:41:27.623Z,954.55
2017-07-02T01:42:23.089Z,954.52
2017-07-02T01:43:29.194Z,954.52
2017-07-02T01:44:21.163Z,954.49
2017-07-02T01:45:28.413Z,954.53
2017-07-02T01:46:17.401Z,954.51
2017-07-02T01:47:22.829Z,954.56
2017-07-02T01:48:27.644Z,954.57
2017-07-02T01:49:23.108Z,954.57
2017-07-02T01:50:22.642Z,954.55
2017-07-02T01:51:28.192Z,954.52
2017-07-02T01:52:27.502Z,954.57
2017-07-02T01:53:27.716Z,954.54
2017-07-02T01:54:17.834Z,954.59
2017-07-02T01:55:28.115Z,954.56
2017-07-02T01:56:23.155Z,954.61
2017-07-02T01:57:28.820Z,954.61
2017-07-02T01:58:28.103Z,954.58
2017-07-02T01:59:29.198Z,954.60
2017-07-02T02:00:22.281Z,954.60
2017-07-02T02:01:22.289Z,954.60
2017-07-02T02:02:17.514Z,954.62
2017-07-02T02:03:28.462Z,954.64
2017-07-02T02:04:22.964Z,954.61
2017-07-02T02:05:23.163Z,954.68
2017-07-02T02:06:28.426Z,954.71
2017-07-02T02:07:24.946Z,954.70
2017-07-02T02:08:23.150Z,954.69
2017-07-02T02:09:23.324Z,954.70
2017-07-02T02:10:27.623Z,954.75
2017-07-02T02:11:23.126Z,954.75
2017-07-02T02:12:28.138Z,954.73
2017-07-02T02:13:28.431Z,954.77
2017-07-02T02:14:22.638Z,954.75
2017-07-02T02:15:22.913Z,954.77
2017-07-02T02:16:22.959Z,954.71
2017-07-02T02:17:23.234Z,954.74
2017-07-02T02:18:22.262Z,954.72
2017-07-02T02:19:22.270Z,954.73
2017-07-02T02:20:22.751Z,954.78
2017-07-02T02:21:22.920Z,954.73
2017-07-02T02:22:22.999Z,954.72
2017-07-02T02:23:23.164Z,954.71
2017-07-02T02:24:28.441Z,954.76
2017-07-02T02:25:22.610Z,954.75
2017-07-02T02:26:22.711Z,954.76
2017-07-02T02:27:23.198Z,954.73
2017-07-02T02:28:29.421Z,954.74
2017-07-02T02:29:22.625Z,954.72
2017-07-02T02:30:28.403Z,954.77
2017-07-02T02:31:27.642Z,954.76
2017-07-02T02:32:12.301Z,954.79
2017-07-02T02:33:22.501Z,954.76
2017-07-02T02:34:22.671Z,954.82
2017-07-02T02:35:27.940Z,954.73
2017-07-02T02:36:28.240Z,954.72
2017-07-02T02:37:23.337Z,954.77
2017-07-02T02:38:22.534Z,954.69
2017-07-02T02:39:22.716Z,954.75
2017-07-02T02:40:23.188Z,954.80
2017-07-02T02:41:28.431Z,954.72
2017-07-02T02:42:29.393Z,954.80
2017-07-02T02:43:22.603Z,954.76
2017-07-02T02:44:27.859Z,954.76
2017-07-02T02:45:17.872Z,954.80
2017-07-02T02:46:23.413Z,954.79
2017-07-02T02:47:27.671Z,954.78
2017-07-02T02:48:22.765Z,954.84
2017-07-02T02:49:22.995Z,954.78
2017-07-02T02:50:28.400Z,954.80
2017-07-02T02:51:22.624Z,954.81
2017-07-02T02:52:28.088Z,954.77
2017-07-02T02:53:23.297Z,954.80
2017-07-02T02:54:27.689Z,954.81
2017-07-02T02:55:27.928Z,954.83
2017-07-02T02:56:23.110Z,954.81
2017-07-02T02:57:21.778Z,954.80
2017-07-02T02:58:27.644Z,954.81
2017-07-02T02:59:22.313Z,954.76
2017-07-02T03:00:28.174Z,954.81
2017-07-02T03:01:28.452Z,954.78
2017-07-02T03:02:22.744Z,954.81
2017-07-02T03:03:18.011Z,954.78
2017-07-02T03:04:23.105Z,954.79
2017-07-02T03:05:24.604Z,954.79
2017-07-02T03:06:22.793Z,954.78
2017-07-02T03:07:28.037Z,954.86
2017-07-02T03:08:28.419Z,954.81
2017-07-02T03:09:22.918Z,954.83
2017-07-02T03:10:28.221Z,954.85
2017-07-02T03:11:17.444Z,954.85
2017-07-02T03:12:28.447Z,954.89
2017-07-02T03:13:17.881Z,954.83
2017-07-02T03:14:28.185Z,954.82
2017-07-02T03:15:28.512Z,954.83
2017-07-02T03:16:27.814Z,954.84
2017-07-02T03:17:34.522Z,954.87
2017-07-02T03:18:22.792Z,954.84
2017-07-02T03:19:22.879Z,954.87
2017-07-02T03:20:23.359Z,954.83
2017-07-02T03:21:24.837Z,954.85
2017-07-02T03:22:26.119Z,954.86
2017-07-02T03:23:28.779Z,954.88
2017-07-02T03:24:22.950Z,954.85
2017-07-02T03:25:23.144Z,954.91
2017-07-02T03:26:28.430Z,954.92
2017-07-02T03:27:27.937Z,954.87
2017-07-02T03:28:29.077Z,954.93
2017-07-02T03:29:23.592Z,954.95
2017-07-02T03:30:17.204Z,954.94
2017-07-02T03:31:17.485Z,954.95
2017-07-02T03:32:28.412Z,954.97
2017-07-02T03:33:27.701Z,954.90
2017-07-02T03:34:23.245Z,954.94
2017-07-02T03:35:27.203Z,954.94
2017-07-02T03:36:27.496Z,954.94
2017-07-02T03:37:22.679Z,954.95
2017-07-02T03:38:22.593Z,954.97
2017-07-02T03:39:22.141Z,954.92
2017-07-02T03:40:23.330Z,954.96
2017-07-02T03:41:28.237Z,954.98
2017-07-02T03:42:27.524Z,954.94
2017-07-02T03:43:23.621Z,954.96
2017-07-02T03:44:28.268Z,954.97
2017-07-02T03:45:28.033Z,954.91
2017-07-02T03:46:23.229Z,954.93
2017-07-02T03:47:27.473Z,954.96
2017-07-02T03:48:27.707Z,955.01
2017-07-02T03:49:28.007Z,954.96
2017-07-02T03:50:27.702Z,954.97
2017-07-02T03:51:22.265Z,954.98
2017-07-02T03:52:27.795Z,955.03
2017-07-02T03:53:28.092Z,954.98
2017-07-02T03:54:22.634Z,955.04
2017-07-02T03:55:25.818Z,955.04
2017-07-02T03:56:28.179Z,955.05
2017-07-02T03:57:28.414Z,955.05
2017-07-02T03:58:28.708Z,955.08
2017-07-02T03:59:28.185Z,955.06
2017-07-02T04:00:28.754Z,955.06
2017-07-02T04:01:28.018Z,955.05
2017-07-02T04:02:23.191Z,955.02
2017-07-02T04:03:27.976Z,955.08
2017-07-02T04:04:23.476Z,955.19
2017-07-02T04:05:27.767Z,955.20
2017-07-02T04:06:23.231Z,955.13
2017-07-02T04:07:27.498Z,955.12
2017-07-02T04:08:23.505Z,955.17
2017-07-02T04:09:22.673Z,955.12
2017-07-02T04:10:22.803Z,955.15
2017-07-02T04:11:28.594Z,955.15
2017-07-02T04:12:28.367Z,955.15
2017-07-02T04:13:22.622Z,955.14
2017-07-02T04:14:27.879Z,955.21
2017-07-02T04:15:28.188Z,955.21
2017-07-02T04:16:23.381Z,955.26
2017-07-02T04:17:22.689Z,955.25
2017-07-02T04:18:28.318Z,955.24
2017-07-02T04:19:27.629Z,955.25
2017-07-02T04:20:22.740Z,955.28
2017-07-02T04:21:28.369Z,955.29
2017-07-02T04:22:28.027Z,955.30
2017-07-02T04:23:23.205Z,955.31
2017-07-02T04:24:22.303Z,955.32
2017-07-02T04:25:11.428Z,955.37
2017-07-02T04:27:32.044Z,955.33
2017-07-02T04:28:29.197Z,955.34
2017-07-02T04:29:30.517Z,955.34
2017-07-02T04:30:27.508Z,955.31
2017-07-02T04:31:27.848Z,955.32
2017-07-02T04:32:23.082Z,955.31
2017-07-02T04:33:23.149Z,955.35
2017-07-02T04:34:19.474Z,955.40
2017-07-02T04:35:18.837Z,955.41
2017-07-02T04:36:28.143Z,955.40
2017-07-02T04:37:17.579Z,955.37
2017-07-02T04:38:17.439Z,955.39
2017-07-02T04:39:22.946Z,955.44
2017-07-02T04:40:28.169Z,955.40
2017-07-02T04:41:23.263Z,955.41
2017-07-02T04:42:27.633Z,955.44
2017-07-02T04:43:28.230Z,955.42
2017-07-02T04:44:27.510Z,955.41
2017-07-02T04:45:28.112Z,955.43
2017-07-02T04:46:23.294Z,955.43
2017-07-02T04:47:22.442Z,955.45
2017-07-02T04:48:18.510Z,955.45
2017-07-02T04:49:22.038Z,955.46
2017-07-02T04:50:24.353Z,955.44
2017-07-02T04:51:23.039Z,955.46
2017-07-02T04:52:22.607Z,955.41
2017-07-02T04:53:11.737Z,955.49
2017-07-02T04:54:22.378Z,955.49
2017-07-02T04:55:23.246Z,955.48
2017-07-02T04:56:27.537Z,955.46
2017-07-02T04:57:23.017Z,955.49
2017-07-02T04:58:28.288Z,955.51
2017-07-02T04:59:27.579Z,955.44
2017-07-02T05:00:22.785Z,955.51
2017-07-02T05:01:22.981Z,955.53
2017-07-02T05:02:28.248Z,955.51
2017-07-02T05:03:27.533Z,955.54
2017-07-02T05:04:22.416Z,955.55
2017-07-02T05:05:27.937Z,955.52
2017-07-02T05:06:23.180Z,955.55
2017-07-02T05:07:28.540Z,955.58
2017-07-02T05:08:27.947Z,955.53
2017-07-02T05:09:28.232Z,955.56
2017-07-02T05:10:27.520Z,955.57
2017-07-02T05:11:22.809Z,955.60
2017-07-02T05:12:23.068Z,955.63
2017-07-02T05:13:23.038Z,955.62
2017-07-02T05:14:28.647Z,955.63
2017-07-02T05:15:23.139Z,955.62
2017-07-02T05:16:23.242Z,955.63
2017-07-02T05:17:22.242Z,955.66
2017-07-02T05:18:22.286Z,955.68
2017-07-02T05:19:22.491Z,955.63
2017-07-02T05:20:22.609Z,955.61
2017-07-02T05:21:27.936Z,955.64
2017-07-02T05:22:29.117Z,955.64
2017-07-02T05:23:23.322Z,955.66
2017-07-02T05:24:27.523Z,955.63
2017-07-02T05:25:23.312Z,955.65
2017-07-02T05:26:27.587Z,955.67
2017-07-02T05:27:18.716Z,955.67
2017-07-02T05:28:28.012Z,955.64
2017-07-02T05:29:28.121Z,955.65
2017-07-02T05:30:23.315Z,955.67
2017-07-02T05:31:22.387Z,955.70
2017-07-02T05:32:22.524Z,955.69
2017-07-02T05:33:28.369Z,955.68
2017-07-02T05:34:22.593Z,955.70
2017-07-02T05:35:23.521Z,955.73
2017-07-02T05:36:23.260Z,955.73
2017-07-02T05:37:28.440Z,955.75
2017-07-02T05:38:27.748Z,955.72
2017-07-02T05:39:23.218Z,955.70
2017-07-02T05:40:22.298Z,955.73
2017-07-02T05:41:22.500Z,955.72
2017-07-02T05:42:22.732Z,955.76
2017-07-02T05:43:28.341Z,955.75
2017-07-02T05:44:17.459Z,955.73
2017-07-02T05:45:22.607Z,955.82
2017-07-02T05:46:27.909Z,955.80
2017-07-02T05:47:22.981Z,955.79
2017-07-02T05:48:23.280Z,955.85
2017-07-02T05:49:27.647Z,955.81
2017-07-02T05:50:27.886Z,955.79
2017-07-02T05:51:28.194Z,955.85
2017-07-02T05:52:22.302Z,955.82
2017-07-02T05:53:25.472Z,955.88
2017-07-02T05:54:22.661Z,955.87
2017-07-02T05:55:22.846Z,955.87
2017-07-02T05:56:23.152Z,955.90
2017-07-02T05:57:28.217Z,955.95
2017-07-02T05:58:27.498Z,955.88
2017-07-02T05:59:27.758Z,955.93
2017-07-02T06:00:23.615Z,955.95
2017-07-02T06:01:27.883Z,955.98
2017-07-02T06:02:22.240Z,956.00
2017-07-02T06:03:17.200Z,956.01
2017-07-02T06:04:18.876Z,956.00
2017-07-02T06:05:28.221Z,955.98
2017-07-02T06:06:27.620Z,956.01
2017-07-02T06:07:27.905Z,956.01
2017-07-02T06:08:28.165Z,956.02
2017-07-02T06:09:27.958Z,956.02
2017-07-02T06:10:28.266Z,956.06
2017-07-02T06:11:23.335Z,956.04
2017-07-02T06:12:27.884Z,956.05
2017-07-02T06:13:23.052Z,956.05
2017-07-02T06:14:22.931Z,956.06
2017-07-02T06:15:28.216Z,956.08
2017-07-02T06:16:27.493Z,956.11
2017-07-02T06:17:22.577Z,956.09
2017-07-02T06:18:22.767Z,956.12
2017-07-02T06:19:27.640Z,956.10
2017-07-02T06:20:22.811Z,956.09
2017-07-02T06:21:25.964Z,956.12
2017-07-02T06:22:18.242Z,956.10
2017-07-02T06:23:21.781Z,956.12
2017-07-02T06:24:25.940Z,956.14
2017-07-02T06:25:23.227Z,956.13
2017-07-02T06:26:27.519Z,956.18
2017-07-02T06:27:22.480Z,956.18
2017-07-02T06:28:27.259Z,956.21
2017-07-02T06:29:22.371Z,956.20
2017-07-02T06:30:28.325Z,956.24
2017-07-02T06:31:28.390Z,956.21
2017-07-02T06:32:22.538Z,956.22
2017-07-02T06:33:22.327Z,956.26
2017-07-02T06:34:27.621Z,956.23
2017-07-02T06:35:28.763Z,956.23
2017-07-02T06:36:23.252Z,956.21
2017-07-02T06:37:23.244Z,956.22
2017-07-02T06:38:28.405Z,956.23
2017-07-02T06:39:27.608Z,956.25
2017-07-02T06:40:18.655Z,956.32
2017-07-02T06:41:23.154Z,956.28
2017-07-02T06:42:28.407Z,956.30
2017-07-02T06:43:27.803Z,956.26
2017-07-02T06:44:28.096Z,956.26
2017-07-02T06:45:28.379Z,956.30
2017-07-02T06:46:22.550Z,956.29
2017-07-02T06:47:28.409Z,956.29
2017-07-02T06:48:22.624Z,956.33
2017-07-02T06:49:22.645Z,956.30
2017-07-02T06:50:23.116Z,956.35
2017-07-02T06:51:23.118Z,956.35
2017-07-02T06:52:23.287Z,956.37
2017-07-02T06:53:22.475Z,956.34
2017-07-02T06:54:22.648Z,956.28
2017-07-02T06:55:22.737Z,956.40
2017-07-02T06:56:22.907Z,956.37
2017-07-02T06:57:23.060Z,956.39
2017-07-02T06:58:29.165Z,956.43
2017-07-02T06:59:23.330Z,956.48
2017-07-02T07:00:17.527Z,956.44
2017-07-02T07:01:17.592Z,956.45
2017-07-02T07:02:27.626Z,956.43
2017-07-02T07:03:23.085Z,956.40
2017-07-02T07:04:23.215Z,956.48
2017-07-02T07:05:27.561Z,956.45
2017-07-02T07:06:28.135Z,956.42
2017-07-02T07:07:24.196Z,956.45
2017-07-02T07:08:27.509Z,956.53
2017-07-02T07:09:27.786Z,956.51
2017-07-02T07:10:22.972Z,956.52
2017-07-02T07:11:23.414Z,956.51
2017-07-02T07:12:22.893Z,956.47
2017-07-02T07:13:28.149Z,956.52
2017-07-02T07:14:23.207Z,956.50
2017-07-02T07:15:22.318Z,956.52
2017-07-02T07:16:22.806Z,956.53
2017-07-02T07:17:22.936Z,956.58
2017-07-02T07:18:23.431Z,956.56
2017-07-02T07:19:22.617Z,956.57
2017-07-02T07:20:27.783Z,956.59
2017-07-02T07:21:29.312Z,956.58
2017-07-02T07:22:27.660Z,956.64
2017-07-02T07:23:22.702Z,956.59
2017-07-02T07:24:22.906Z,956.54
2017-07-02T07:25:28.245Z,956.63
2017-07-02T07:26:27.532Z,956.62
2017-07-02T07:27:23.059Z,956.64
2017-07-02T07:28:23.172Z,956.64
2017-07-02T07:29:27.912Z,956.70
2017-07-02T07:30:23.104Z,956.67
2017-07-02T07:31:28.436Z,956.63
2017-07-02T07:32:27.745Z,956.65
2017-07-02T07:33:22.920Z,956.68
2017-07-02T07:34:23.142Z,956.71
2017-07-02T07:35:23.208Z,956.62
2017-07-02T07:36:18.446Z,956.67
2017-07-02T07:37:27.754Z,956.68
2017-07-02T07:38:28.085Z,956.70
2017-07-02T07:39:28.384Z,956.67
2017-07-02T07:40:28.538Z,956.72
2017-07-02T07:41:27.786Z,956.71
2017-07-02T07:42:22.961Z,956.69
2017-07-02T07:43:23.192Z,956.68
2017-07-02T07:44:24.250Z,956.67
2017-07-02T07:45:28.320Z,956.67
2017-07-02T07:46:23.127Z,956.71
2017-07-02T07:47:28.449Z,956.73
2017-07-02T07:48:22.633Z,956.68
2017-07-02T07:49:22.685Z,956.69
2017-07-02T07:50:23.184Z,956.68
2017-07-02T07:51:23.287Z,956.81
2017-07-02T07:52:27.576Z,956.76
2017-07-02T07:53:23.047Z,956.80
2017-07-02T07:54:23.197Z,956.79
2017-07-02T07:55:23.366Z,956.80
2017-07-02T07:56:25.122Z,956.78
2017-07-02T07:57:23.324Z,956.79
2017-07-02T07:58:22.531Z,956.79
2017-07-02T07:59:22.688Z,956.81
2017-07-02T08:00:22.899Z,956.83
2017-07-02T08:01:22.486Z,956.76
2017-07-02T08:02:27.805Z,956.80
2017-07-02T08:03:23.249Z,956.75
2017-07-02T08:04:27.557Z,956.77
2017-07-02T08:05:27.655Z,956.76
2017-07-02T08:06:17.877Z,956.75
2017-07-02T08:07:17.545Z,956.77
2017-07-02T08:08:27.832Z,956.83
2017-07-02T08:09:28.239Z,956.80
2017-07-02T08:10:27.532Z,956.79
2017-07-02T08:11:27.455Z,956.78
2017-07-02T08:12:27.751Z,956.82
2017-07-02T08:13:18.198Z,956.83
2017-07-02T08:14:22.268Z,956.84
2017-07-02T08:15:27.534Z,956.85
2017-07-02T08:16:23.015Z,956.85
2017-07-02T08:17:23.318Z,956.86
2017-07-02T08:18:27.620Z,956.87
2017-07-02T08:19:22.794Z,956.87
2017-07-02T08:20:22.387Z,956.89
2017-07-02T08:21:22.651Z,956.91
2017-07-02T08:22:27.690Z,956.92
2017-07-02T08:23:28.258Z,956.93
2017-07-02T08:24:27.522Z,956.97
2017-07-02T08:25:28.080Z,956.95
2017-07-02T08:26:28.378Z,956.93
2017-07-02T08:27:22.589Z,956.95
2017-07-02T08:28:22.837Z,956.96
2017-07-02T08:29:22.907Z,956.91
2017-07-02T08:30:23.361Z,956.94
2017-07-02T08:31:27.628Z,957.00
2017-07-02T08:32:23.111Z,956.98
2017-07-02T08:33:18.206Z,957.03
2017-07-02T08:34:28.038Z,956.98
2017-07-02T08:36:28.158Z,957.00
2017-07-02T08:37:28.430Z,957.04
2017-07-02T08:38:22.632Z,957.05
2017-07-02T08:39:22.168Z,957.02
2017-07-02T08:40:23.459Z,957.06
2017-07-02T08:41:22.500Z,957.05
2017-07-02T08:42:23.400Z,957.06
2017-07-02T08:43:22.559Z,957.07
2017-07-02T08:44:22.709Z,957.12
2017-07-02T08:45:22.896Z,957.12
2017-07-02T08:46:18.872Z,957.11
2017-07-02T08:47:27.618Z,957.14
2017-07-02T08:48:27.506Z,957.17
2017-07-02T08:49:22.714Z,957.12
2017-07-02T08:50:27.435Z,957.13
2017-07-02T08:51:17.729Z,957.08
2017-07-02T08:52:23.134Z,957.12
2017-07-02T08:53:23.320Z,957.13
2017-07-02T08:54:18.634Z,957.12
2017-07-02T08:55:17.926Z,957.13
2017-07-02T08:56:18.311Z,957.14
2017-07-02T08:57:22.305Z,957.11
2017-07-02T08:58:19.090Z,957.10
2017-07-02T08:59:23.168Z,957.16
2017-07-02T09:00:23.139Z,957.13
2017-07-02T09:01:28.430Z,957.15
2017-07-02T09:02:22.307Z,957.15
2017-07-02T09:03:21.767Z,957.20
2017-07-02T09:04:12.505Z,957.17
2017-07-02T09:05:27.198Z,957.17
2017-07-02T09:06:17.330Z,957.22
2017-07-02T09:07:23.358Z,957.21
2017-07-02T09:08:18.063Z,957.22
2017-07-02T09:09:27.962Z,957.22
2017-07-02T09:10:19.081Z,957.20
2017-07-02T09:11:17.125Z,957.23
2017-07-02T09:12:26.937Z,957.26
2017-07-02T09:13:22.608Z,957.25
2017-07-02T09:14:18.120Z,957.24
2017-07-02T09:15:23.249Z,957.26
2017-07-02T09:16:21.808Z,957.27
2017-07-02T09:17:17.361Z,957.28
2017-07-02T09:18:18.106Z,957.27
2017-07-02T09:19:28.035Z,957.28
2017-07-02T09:20:17.853Z,957.31
2017-07-02T09:21:27.724Z,957.31
2017-07-02T09:22:22.270Z,957.33
2017-07-02T09:23:22.469Z,957.33
2017-07-02T09:24:22.957Z,957.37
2017-07-02T09:25:17.513Z,957.36
2017-07-02T09:26:22.994Z,957.36
2017-07-02T09:27:23.126Z,957.43
2017-07-02T09:28:23.335Z,957.39
2017-07-02T09:29:27.927Z,957.42
2017-07-02T09:30:28.282Z,957.40
2017-07-02T09:31:17.607Z,957.40
2017-07-02T09:32:22.841Z,957.40
2017-07-02T09:33:18.222Z,957.45
2017-07-02T09:34:27.530Z,957.45
2017-07-02T09:35:27.822Z,957.44
2017-07-02T09:36:28.179Z,957.50
2017-07-02T09:37:23.364Z,957.47
2017-07-02T09:38:27.680Z,957.50
2017-07-02T09:39:23.195Z,957.54
2017-07-02T09:40:28.829Z,957.54
2017-07-02T09:41:23.116Z,957.56
2017-07-02T09:42:22.958Z,957.59
2017-07-02T09:43:23.059Z,957.58
2017-07-02T09:44:28.389Z,957.55
2017-07-02T09:45:22.940Z,957.59
2017-07-02T09:46:17.761Z,957.61
2017-07-02T09:47:23.006Z,957.56
2017-07-02T09:48:22.597Z,957.58
2017-07-02T09:49:23.136Z,957.61
2017-07-02T09:50:27.884Z,957.60
2017-07-02T09:51:28.222Z,957.63
2017-07-02T09:52:22.588Z,957.63
2017-07-02T09:53:22.219Z,957.63
2017-07-02T09:54:27.570Z,957.65
2017-07-02T09:55:17.848Z,957.64
2017-07-02T09:56:17.724Z,957.66
2017-07-02T09:57:17.610Z,957.67
2017-07-02T09:58:27.888Z,957.68
2017-07-02T09:59:23.098Z,957.68
2017-07-02T10:00:22.803Z,957.71
2017-07-02T10:01:13.116Z,957.70
2017-07-02T10:02:22.605Z,957.68
2017-07-02T10:03:23.252Z,957.71
2017-07-02T10:04:17.540Z,957.66
2017-07-02T10:05:19.536Z,957.70
2017-07-02T10:06:18.263Z,957.67
2017-07-02T10:07:28.639Z,957.72
2017-07-02T10:08:18.243Z,957.70
2017-07-02T10:09:17.221Z,957.73
2017-07-02T10:10:18.290Z,957.76
2017-07-02T10:11:17.980Z,957.78
2017-07-02T10:12:28.295Z,957.73
2017-07-02T10:13:27.600Z,957.77
2017-07-02T10:14:21.909Z,957.75
2017-07-02T10:15:28.198Z,957.78
2017-07-02T10:16:22.328Z,957.78
2017-07-02T10:17:17.870Z,957.78
2017-07-02T10:18:18.010Z,957.76
2017-07-02T10:19:17.770Z,957.79
2017-07-02T10:20:27.804Z,957.81
2017-07-02T10:21:17.782Z,957.78
2017-07-02T10:22:29.052Z,957.80
2017-07-02T10:23:17.969Z,957.81
2017-07-02T10:24:28.277Z,957.87
2017-07-02T10:25:27.300Z,957.80
2017-07-02T10:26:27.817Z,957.83
2017-07-02T10:27:17.805Z,957.79
2017-07-02T10:28:18.671Z,957.83
2017-07-02T10:29:27.966Z,957.84
2017-07-02T10:30:18.170Z,957.84
2017-07-02T10:31:28.417Z,957.84
2017-07-02T10:32:17.507Z,957.84
2017-07-02T10:33:27.907Z,957.82
2017-07-02T10:34:23.222Z,957.83
2017-07-02T10:35:27.541Z,957.85
2017-07-02T10:36:24.016Z,957.82
2017-07-02T10:37:22.984Z,957.82
2017-07-02T10:38:28.269Z,957.89
2017-07-02T10:39:22.282Z,957.90
2017-07-02T10:40:18.807Z,957.84
2017-07-02T10:41:23.343Z,957.87
2017-07-02T10:42:22.520Z,957.87
2017-07-02T10:43:22.694Z,957.87
2017-07-02T10:44:23.244Z,957.89
2017-07-02T10:45:22.289Z,957.87
2017-07-02T10:46:28.245Z,957.88
2017-07-02T10:47:27.656Z,957.85
2017-07-02T10:48:23.183Z,957.90
2017-07-02T10:49:22.527Z,957.88
2017-07-02T10:50:27.630Z,957.88
2017-07-02T10:51:27.886Z,957.87
2017-07-02T10:52:28.147Z,957.89
2017-07-02T10:53:23.690Z,957.87
2017-07-02T10:54:18.586Z,957.89
2017-07-02T10:55:27.892Z,957.82
2017-07-02T10:56:27.916Z,957.84
2017-07-02T10:57:23.017Z,957.86
2017-07-02T10:58:23.216Z,957.80
2017-07-02T10:59:23.377Z,957.80
2017-07-02T11:00:27.647Z,957.80
2017-07-02T11:01:18.135Z,957.82
2017-07-02T11:02:28.439Z,957.82
2017-07-02T11:03:17.444Z,957.81
2017-07-02T11:04:22.906Z,957.77
2017-07-02T11:05:28.207Z,957.79
2017-07-02T11:06:28.127Z,957.75
2017-07-02T11:07:27.465Z,957.84
2017-07-02T11:08:27.476Z,957.87
2017-07-02T11:09:30.942Z,957.83
2017-07-02T11:10:24.579Z,957.86
2017-07-02T11:11:18.468Z,957.84
2017-07-02T11:12:17.821Z,957.85
2017-07-02T11:13:23.037Z,957.87
2017-07-02T11:14:23.225Z,957.84
2017-07-02T11:15:25.390Z,957.82
2017-07-02T11:16:17.611Z,957.83
2017-07-02T11:17:27.884Z,957.81
2017-07-02T11:18:18.461Z,957.78
2017-07-02T11:19:22.921Z,957.78
2017-07-02T11:20:27.661Z,957.75
2017-07-02T11:21:18.502Z,957.72
2017-07-02T11:22:22.967Z,957.67
2017-07-02T11:23:28.240Z,957.68
2017-07-02T11:24:22.263Z,957.64
2017-07-02T11:25:17.379Z,957.72
2017-07-02T11:26:28.713Z,957.65
2017-07-02T11:27:22.891Z,957.70
2017-07-02T11:28:18.066Z,957.66
2017-07-02T11:29:26.027Z,957.67
2017-07-02T11:30:23.128Z,957.70
2017-07-02T11:31:28.431Z,957.70
2017-07-02T11:32:27.748Z,957.72
2017-07-02T11:33:22.938Z,957.66
2017-07-02T11:34:22.508Z,957.64
2017-07-02T11:35:22.097Z,957.72
2017-07-02T11:36:28.408Z,957.70
2017-07-02T11:37:22.925Z,957.65
2017-07-02T11:38:22.954Z,957.72
2017-07-02T11:39:22.506Z,957.75
2017-07-02T11:40:27.820Z,957.70
2017-07-02T11:41:23.335Z,957.70
2017-07-02T11:42:23.223Z,957.73
2017-07-02T11:43:17.313Z,957.70
2017-07-02T11:44:27.621Z,957.70
2017-07-02T11:45:27.658Z,957.67
2017-07-02T11:46:22.262Z,957.70
2017-07-02T11:47:17.615Z,957.66
2017-07-02T11:48:25.798Z,957.65
2017-07-02T11:49:23.290Z,957.62
2017-07-02T11:50:17.807Z,957.60
2017-07-02T11:51:22.648Z,957.57
2017-07-02T11:52:27.973Z,957.57
2017-07-02T11:53:23.202Z,957.54
2017-07-02T11:54:17.348Z,957.58
2017-07-02T11:55:28.937Z,957.57
2017-07-02T11:56:22.488Z,957.56
2017-07-02T11:57:18.289Z,957.53
2017-07-02T11:58:27.551Z,957.56
2017-07-02T11:59:17.937Z,957.63
2017-07-02T12:00:18.739Z,957.58
2017-07-02T12:01:17.977Z,957.63
2017-07-02T12:02:28.124Z,957.62
2017-07-02T12:03:22.694Z,957.66
2017-07-02T12:04:27.981Z,957.54
2017-07-02T12:05:23.191Z,957.55
2017-07-02T12:06:23.104Z,957.56
2017-07-02T12:07:24.193Z,957.56
2017-07-02T12:08:33.690Z,957.56
2017-07-02T12:09:22.259Z,957.62
2017-07-02T12:10:25.498Z,957.57
2017-07-02T12:12:27.627Z,957.62
2017-07-02T12:13:25.808Z,957.66
2017-07-02T12:14:19.787Z,957.60
2017-07-02T12:15:28.038Z,957.72
2017-07-02T12:16:27.799Z,957.65
2017-07-02T12:17:23.107Z,957.74
2017-07-02T12:18:23.245Z,957.71
2017-07-02T12:19:22.289Z,957.71
2017-07-02T12:20:29.910Z,957.72
2017-07-02T12:21:28.183Z,957.69
2017-07-02T12:22:28.469Z,957.72
2017-07-02T12:23:27.781Z,957.67
2017-07-02T12:24:27.512Z,957.66
2017-07-02T12:25:25.005Z,957.67
2017-07-02T12:26:27.780Z,957.64
2017-07-02T12:27:23.699Z,957.60
2017-07-02T12:28:23.809Z,957.66
2017-07-02T12:29:28.978Z,957.62
2017-07-02T12:30:28.393Z,957.59
2017-07-02T12:31:22.906Z,957.59